< < Back
Terminal Aerodrome Forecast


Current Version              Previous Versions:   1  2  3  4  5  6  7  8  9  

Terminal Aerodrome Forecast

851
FTUS44 KMRX 252328
TAFTYS
TAF
KTYS 252328Z 2600/2624 25004KT P6SM SCT250
     FM261500 23007KT P6SM SCT250=



Latest METAR

478
SAUS80 KWBC 260500
MTRTYS
METAR KTYS 260453Z 00000KT 10SM BKN200 20/17 A3005 RMK AO2 SLP166
T02000172 402830172


USA.gov is the U.S. government's official web portal to all federal, state and local government web resources and services.